Clermont County, Batavia, OH

5:29 PM EST on December 07, 2019 (GMT -0500)
Clermont County, Batavia

Weather History for KI69 - October, 2019

Change the Weather History Date:

Sunday, October 13, 2019

  Actual Average (KLUK) Record (KLUK)
Temperature  
Mean Temperature 50 °F -  
Max Temperature 67 °F 69 °F 86 °F (1975)
Min Temperature 34 °F 46 °F 27 °F (1988)
Degree Days  
Heating Degree Days 14    
Moisture  
Dew Point 35 °F    
Average Humidity 61    
Maximum Humidity 95    
Minimum Humidity 27    
Precipitation  
Precipitation 0.00 in - - ()
Sea Level Pressure  
Sea Level Pressure 30.01 in    
Wind  
Wind Speed 3 mph (SW)    
Max Wind Speed 14 mph    
Max Gust Speed 17 mph    
Visibility 10 miles    
Events      
Averages and records for this station are not official NWS values.
T = Trace of Precipitation, MM = Missing Value Source: NWS Daily Summary

Daily Weather History Graph

Daily Weather History Graph

Search for Another Location

Airport or City:

Astronomy

Oct. 13, 2019 Rise Set
Actual Time 7:44 AM EDT 7:01 PM EDT
Civil Twilight 7:17 AM EDT 7:28 PM EDT
Nautical Twilight 6:46 AM EDT 7:59 PM EDT
Astronomical Twilight 6:15 AM EDT 8:30 PM EDT
Moon 7:23 PM EDT (10/13) 7:18 AM EDT (10/13)
Length of Visible Light 12h 10m
Length of Day
11h 17m
Full, 100% of the Moon is Illuminated
Oct 13
Full
Oct 13
Full
Oct 21
Last Quarter
Oct 27
New
Nov 4
First Quarter

Hourly Weather History & Observations

Time (EDT) Temp. Windchill Dew Point Humidity Pressure Visibility Wind Dir Wind Speed Gust Speed Precip Events Conditions
12:15 AM 40.1 °F - 34.5 °F 80% 30.09 in 10.0 mi Calm Calm - N/A   Clear
12:35 AM 39.9 °F - 34.9 °F 82% 30.09 in 10.0 mi Calm Calm - N/A   Clear
12:59 AM 38.3 °F - 35.1 °F 88% 30.08 in 10.0 mi Calm Calm - N/A   Clear
1:17 AM 38.7 °F - 34.7 °F 86% 30.08 in 10.0 mi Calm Calm - N/A   Clear
1:35 AM 38.5 °F - 35.1 °F 87% 30.07 in 10.0 mi Calm Calm - N/A   Clear
1:55 AM 37.9 °F - 35.1 °F 89% 30.07 in 10.0 mi Calm Calm - N/A   Clear
2:15 AM 38.1 °F - 34.9 °F 88% 30.07 in 10.0 mi Calm Calm - N/A   Clear
2:38 AM 39.0 °F - 34.3 °F 83% 30.06 in 10.0 mi Calm Calm - N/A   Clear
2:57 AM 38.8 °F 36.5 °F 34.7 °F 85% 30.06 in 10.0 mi SSE 3.5 mph - N/A   Clear
3:15 AM 37.0 °F - 33.6 °F 87% 30.06 in 10.0 mi Calm Calm - N/A   Clear
3:35 AM 38.3 °F - 34.2 °F 85% 30.06 in 10.0 mi Calm Calm - N/A   Clear
3:55 AM 37.8 °F - 34.2 °F 87% 30.06 in 10.0 mi Calm Calm - N/A   Clear
4:18 AM 37.8 °F - 33.8 °F 86% 30.06 in 10.0 mi Calm Calm - N/A   Clear
4:36 AM 37.0 °F - 34.0 °F 89% 30.06 in 10.0 mi Calm Calm - N/A   Clear
4:55 AM 37.0 °F - 33.3 °F 86% 30.06 in 10.0 mi Calm Calm - N/A   Clear
5:35 AM 36.0 °F - 33.8 °F 92% 30.06 in 10.0 mi Calm Calm - N/A   Clear
5:58 AM 35.8 °F - 33.8 °F 92% 30.06 in 10.0 mi Calm Calm - N/A   Clear
6:16 AM 34.9 °F - 33.6 °F 95% 30.05 in 10.0 mi Calm Calm - N/A   Clear
6:35 AM 35.4 °F - 33.6 °F 93% 30.06 in 10.0 mi Calm Calm - N/A   Clear
6:55 AM 36.7 °F 34.1 °F 34.0 °F 90% 30.06 in 10.0 mi SSE 3.5 mph - N/A   Clear
7:15 AM 35.8 °F - 33.3 °F 91% 30.06 in 10.0 mi Calm Calm - N/A   Clear
7:38 AM 36.5 °F - 34.5 °F 93% 30.06 in 10.0 mi Calm Calm - N/A   Clear
7:56 AM 36.7 °F - 34.9 °F 93% 30.06 in 10.0 mi Calm Calm - N/A   Clear
8:15 AM 36.7 °F - 35.1 °F 94% 30.06 in 10.0 mi Calm Calm - N/A   Clear
8:36 AM 36.5 °F - 35.1 °F 95% 30.07 in 10.0 mi Calm Calm - N/A   Clear
8:55 AM 37.4 °F 34.9 °F 35.4 °F 93% 30.06 in 10.0 mi SSE 3.5 mph - N/A   Clear
9:18 AM 39.7 °F - 37.4 °F 91% 30.06 in 10.0 mi Calm Calm - N/A   Clear
9:36 AM 42.6 °F - 38.3 °F 85% 30.06 in 10.0 mi Calm Calm - N/A   Clear
9:55 AM 46.9 °F - 39.0 °F 74% 30.06 in 10.0 mi Calm Calm - N/A   Clear
10:15 AM 50.0 °F - 38.7 °F 65% 30.06 in 10.0 mi SW 8.1 mph - N/A   Clear
10:35 AM 50.4 °F - 37.6 °F 62% 30.05 in 10.0 mi SSW 6.9 mph - N/A   Clear
10:40 AM 50.0 °F - 37.4 °F 62% 30.05 in 10.0 mi SSW 6.9 mph - N/A   Clear
10:58 AM 52.2 °F - 38.1 °F 59% 30.06 in 10.0 mi SW 6.9 mph - N/A   Clear
11:16 AM 54.0 °F - 37.8 °F 54% 30.05 in 10.0 mi SW 9.2 mph - N/A   Clear
11:35 AM 54.3 °F - 37.6 °F 53% 30.05 in 10.0 mi WSW 11.5 mph - N/A   Clear
11:55 AM 55.4 °F - 37.6 °F 51% 30.04 in 10.0 mi SSW 6.9 mph - N/A   Clear
12:19 PM 57.4 °F - 37.0 °F 47% 30.04 in 10.0 mi SSW 8.1 mph - N/A   Clear
12:38 PM 58.3 °F - 36.3 °F 44% 30.03 in 10.0 mi SW 10.4 mph - N/A   Clear
12:56 PM 58.6 °F - 36.5 °F 44% 30.03 in 10.0 mi SSW 8.1 mph - N/A   Clear
1:15 PM 60.6 °F - 36.7 °F 41% 30.01 in 10.0 mi SSW 8.1 mph 17.3 mph N/A   Clear
1:35 PM 62.2 °F - 37.2 °F 39% 29.99 in 10.0 mi SW 10.4 mph - N/A   Clear
1:36 PM 62.4 °F - 37.2 °F 39% 30.00 in 10.0 mi SSW 8.1 mph - N/A   Clear
1:55 PM 63.0 °F - 35.8 °F 36% 29.99 in 10.0 mi SW 6.9 mph - N/A   Clear
2:18 PM 63.7 °F - 33.1 °F 32% 29.97 in 10.0 mi SW 11.5 mph - N/A   Clear
2:36 PM 65.1 °F - 35.1 °F 33% 29.97 in 10.0 mi South 8.1 mph - N/A   Clear
2:55 PM 65.5 °F - 34.9 °F 32% 29.96 in 10.0 mi WSW 10.4 mph - N/A   Clear
3:15 PM 66.4 °F - 34.5 °F 31% 29.94 in 10.0 mi SSW 10.4 mph - N/A   Clear
3:35 PM 66.6 °F - 33.3 °F 29% 29.94 in 10.0 mi SW 12.7 mph 17.3 mph N/A   Clear
3:58 PM 66.6 °F - 32.4 °F 28% 29.93 in 10.0 mi SSW 9.2 mph - N/A   Clear
4:16 PM 67.5 °F - 32.0 °F 27% 29.93 in 10.0 mi SW 9.2 mph - N/A   Clear
4:35 PM 67.6 °F - 32.5 °F 27% 29.93 in 10.0 mi SW 9.2 mph - N/A   Clear
4:55 PM 67.6 °F - 32.5 °F 27% 29.93 in 10.0 mi SW 13.8 mph - N/A   Clear
5:15 PM 67.5 °F - 33.1 °F 28% 29.93 in 10.0 mi SW 13.8 mph - N/A   Clear
5:38 PM 67.3 °F - 33.1 °F 28% 29.93 in 10.0 mi SW 12.7 mph 17.3 mph N/A   Clear
5:56 PM 67.1 °F - 33.4 °F 29% 29.94 in 10.0 mi SW 10.4 mph 16.1 mph N/A   Clear
6:15 PM 66.2 °F - 32.7 °F 29% 29.94 in 10.0 mi SW 10.4 mph - N/A   Clear
6:35 PM 65.3 °F - 33.8 °F 31% 29.94 in 10.0 mi SW 5.8 mph - N/A   Clear
6:55 PM 63.7 °F - 34.7 °F 34% 29.94 in 10.0 mi SSW 3.5 mph - N/A   Clear
7:18 PM 61.3 °F - 34.7 °F 37% 29.94 in 10.0 mi SSW 4.6 mph - N/A   Clear
7:36 PM 60.6 °F - 34.7 °F 38% 29.94 in 10.0 mi SSW 3.5 mph - N/A   Clear
7:55 PM 59.2 °F - 34.7 °F 40% 29.95 in 10.0 mi SSW 3.5 mph - N/A   Clear
8:15 PM 57.6 °F - 35.1 °F 43% 29.96 in 10.0 mi SSW 3.5 mph - N/A   Clear
8:39 PM 56.5 °F - 36.5 °F 47% 29.97 in 10.0 mi WSW 3.5 mph - N/A   Clear
8:58 PM 55.4 °F - 36.5 °F 49% 29.97 in 10.0 mi Calm Calm - N/A   Clear
9:16 PM 54.7 °F - 36.3 °F 50% 29.97 in 10.0 mi SSW 3.5 mph - N/A   Clear
9:35 PM 54.0 °F - 37.4 °F 54% 29.97 in 10.0 mi SSW 5.8 mph - N/A   Clear
9:55 PM 55.0 °F - 37.4 °F 51% 29.97 in 10.0 mi SSW 5.8 mph - N/A   Clear
10:19 PM 55.6 °F - 37.6 °F 51% 29.97 in 10.0 mi SSW 8.1 mph - N/A   Clear
10:38 PM 55.8 °F - 37.8 °F 51% 29.97 in 10.0 mi SW 8.1 mph - N/A   Clear
10:56 PM 55.4 °F - 37.9 °F 52% 29.98 in 10.0 mi SW 6.9 mph - N/A   Clear
11:15 PM 54.9 °F - 37.9 °F 53% 29.98 in 10.0 mi SW 6.9 mph - N/A   Clear
11:35 PM 53.8 °F - 38.3 °F 56% 29.99 in 10.0 mi SW 6.9 mph - N/A   Clear
11:59 PM 53.6 °F - 38.3 °F 56% 29.99 in 10.0 mi SW 6.9 mph - N/A   Clear